Time;durP1;ratioP1;P1;durP2;ratioP2;P2;SDS_P1;SDS_P2;PMS_P1;PMS_P2;Temp;Humidity;BMP_temperature;BMP_pressure;BME280_temperature;BME280_humidity;BME280_pressure;Samples;Min_cycle;Max_cycle;Signal;HPM_P1;HPM_P2
2023/03/08 00:00:01;;;;;;;0.10;0.10;;;;;;;1.25;100.00;98950.78;5006138;28;20046;-79
2023/03/08 00:02:26;;;;;;;0.10;0.10;;;;;;;1.24;100.00;98951.66;4987759;28;20636;-79
2023/03/08 00:04:55;;;;;;;0.10;0.10;;;;;;;1.26;100.00;98950.81;5007022;28;20034;-79
2023/03/08 00:07:21;;;;;;;0.10;0.10;;;;;;;1.16;100.00;98946.41;5014473;28;20031;-79
2023/03/08 00:09:46;;;;;;;0.10;0.10;;;;;;;1.21;100.00;98954.22;5006534;28;20543;-79
2023/03/08 00:12:11;;;;;;;0.00;0.00;;;;;;;1.25;100.00;98953.38;5007933;28;20038;-78
2023/03/08 00:14:37;;;;;;;0.00;0.00;;;;;;;1.26;100.00;98948.19;5007575;28;20041;-79
2023/03/08 00:17:02;;;;;;;0.10;0.10;;;;;;;1.27;100.00;98952.53;5008771;28;20029;-79
2023/03/08 00:19:27;;;;;;;0.03;0.03;;;;;;;1.22;100.00;98949.03;5007837;28;20045;-78
2023/03/08 00:21:53;;;;;;;0.05;0.05;;;;;;;1.18;100.00;98954.19;5006709;28;20040;-79
2023/03/08 00:24:18;;;;;;;0.10;0.10;;;;;;;1.17;100.00;98952.47;5005061;28;20039;-79
2023/03/08 00:26:44;;;;;;;0.00;0.00;;;;;;;1.18;100.00;98960.28;5007056;28;20034;-79
2023/03/08 00:29:10;;;;;;;0.10;0.10;;;;;;;1.17;100.00;98968.06;4989633;28;20034;-79
2023/03/08 00:31:35;;;;;;;0.10;0.10;;;;;;;1.15;100.00;98968.03;5006152;28;20087;-79
2023/03/08 00:34:01;;;;;;;0.10;0.10;;;;;;;1.14;100.00;98968.03;5006486;28;20092;-79
2023/03/08 00:36:26;;;;;;;0.10;0.10;;;;;;;1.09;100.00;98960.22;5008571;28;20041;-79
2023/03/08 00:38:51;;;;;;;0.10;0.10;;;;;;;1.09;100.00;98970.59;5008266;28;20104;-80
2023/03/08 00:41:18;;;;;;;0.03;0.03;;;;;;;1.14;100.00;98960.25;5008252;28;20034;-80
2023/03/08 00:43:44;;;;;;;0.00;0.00;;;;;;;1.09;100.00;98955.00;5009171;28;20065;-79
2023/03/08 00:46:10;;;;;;;0.10;0.10;;;;;;;1.09;100.00;98958.47;5010328;28;20041;-80
2023/03/08 00:48:36;;;;;;;0.00;0.00;;;;;;;1.11;100.00;98965.44;5008011;28;20041;-79
2023/03/08 00:51:02;;;;;;;0.10;0.10;;;;;;;1.07;100.00;98968.00;5006102;28;20030;-79
2023/03/08 00:53:28;;;;;;;0.10;0.10;;;;;;;1.05;100.00;98968.84;5002385;28;20031;-79
2023/03/08 00:55:56;;;;;;;0.10;0.10;;;;;;;0.97;100.00;98973.09;5010158;28;20025;-78
2023/03/08 00:58:23;;;;;;;0.10;0.10;;;;;;;0.98;100.00;98982.66;4990743;28;20040;-79
2023/03/08 01:00:49;;;;;;;0.03;0.03;;;;;;;1.00;100.00;98986.13;5007978;28;20038;-79
2023/03/08 01:03:16;;;;;;;0.10;0.10;;;;;;;0.97;100.00;98986.97;5010798;28;20096;-79
2023/03/08 01:05:46;;;;;;;0.00;0.00;;;;;;;0.92;100.00;98990.38;5007872;28;20133;-79
2023/03/08 01:08:12;;;;;;;0.00;0.00;;;;;;;0.93;100.00;98989.53;5008924;28;20623;-79
2023/03/08 01:10:38;;;;;;;0.00;0.00;;;;;;;0.98;100.00;98995.66;5006342;28;20034;-79
2023/03/08 01:13:05;;;;;;;0.00;0.00;;;;;;;1.04;100.00;98990.47;4994158;28;20399;-79
2023/03/08 01:15:34;;;;;;;0.10;0.10;;;;;;;1.09;100.00;98986.19;5006074;28;20038;-79
2023/03/08 01:18:02;;;;;;;0.10;0.10;;;;;;;1.03;100.00;98992.22;5008802;28;20084;-79
2023/03/08 01:20:28;;;;;;;0.10;0.10;;;;;;;0.94;100.00;98993.88;4990092;28;20026;-79
2023/03/08 01:22:54;;;;;;;0.00;0.00;;;;;;;0.90;100.00;98999.91;5010795;28;20534;-79
2023/03/08 01:25:19;;;;;;;0.00;0.00;;;;;;;0.83;100.00;98999.84;5009065;28;20055;-79
2023/03/08 01:27:44;;;;;;;0.00;0.00;;;;;;;0.85;100.00;99003.31;5007454;28;20042;-79
2023/03/08 01:30:10;;;;;;;0.10;0.10;;;;;;;0.79;100.00;99005.03;5009948;28;20053;-79
2023/03/08 01:32:36;;;;;;;0.00;0.00;;;;;;;0.76;100.00;99016.25;4990093;28;20073;-79
2023/03/08 01:35:03;;;;;;;0.03;0.03;;;;;;;0.75;100.00;99011.03;5011617;28;20033;-79
2023/03/08 01:37:30;;;;;;;0.00;0.00;;;;;;;0.76;100.00;99007.56;5003676;28;20077;-79
2023/03/08 01:39:55;;;;;;;0.03;0.03;;;;;;;0.80;100.00;99005.00;5008232;28;20081;-79
2023/03/08 01:42:21;;;;;;;0.00;0.00;;;;;;;0.81;100.00;99005.88;5008274;28;20046;-79
2023/03/08 01:44:55;;;;;;;0.00;0.00;;;;;;;0.86;100.00;99004.19;5011071;28;20052;-79
2023/03/08 01:47:23;;;;;;;0.00;0.00;;;;;;;0.86;100.00;99010.28;5006445;28;20443;-79
2023/03/08 01:50:11;;;;;;;0.00;0.00;;;;;;;0.87;100.00;99017.19;5005681;28;20053;-79
2023/03/08 01:52:45;;;;;;;0.00;0.00;;;;;;;0.91;100.00;99018.09;5007927;28;20080;-79
2023/03/08 01:55:14;;;;;;;0.00;0.00;;;;;;;0.93;100.00;99012.91;5009185;28;20033;-78
2023/03/08 01:57:44;;;;;;;0.00;0.00;;;;;;;0.92;100.00;99014.66;4994043;28;20036;-79
2023/03/08 02:00:14;;;;;;;0.00;0.00;;;;;;;0.94;100.00;99007.72;4986131;28;20039;-79
2023/03/08 02:02:47;;;;;;;0.00;0.00;;;;;;;0.96;100.00;99003.41;5007205;28;20121;-79
2023/03/08 02:05:13;;;;;;;0.10;0.10;;;;;;;0.91;100.00;99010.28;5004969;28;20133;-78
2023/03/08 02:07:39;;;;;;;0.00;0.00;;;;;;;0.96;100.00;99010.34;5008504;28;20029;-79
2023/03/08 02:10:05;;;;;;;0.05;0.05;;;;;;;0.95;100.00;99024.19;5003754;28;20034;-79
2023/03/08 02:12:31;;;;;;;0.00;0.00;;;;;;;0.97;100.00;99025.06;5010741;28;20030;-79
2023/03/08 02:14:58;;;;;;;0.10;0.10;;;;;;;0.99;100.00;99012.94;5007881;28;20571;-79
2023/03/08 02:17:25;;;;;;;0.00;0.00;;;;;;;1.02;100.00;99028.56;5009669;28;20030;-79
2023/03/08 02:19:54;;;;;;;0.10;0.10;;;;;;;1.00;100.00;99012.13;5012562;28;20121;-79
2023/03/08 02:22:20;;;;;;;0.10;0.10;;;;;;;1.00;100.00;98999.13;5010694;28;20049;-79
2023/03/08 02:24:46;;;;;;;0.10;0.10;;;;;;;1.03;100.00;99012.13;5007997;28;20080;-79
2023/03/08 02:27:25;;;;;;;0.10;0.10;;;;;;;1.00;100.00;99012.13;5011074;28;20045;-78
2023/03/08 02:29:51;;;;;;;0.10;0.10;;;;;;;0.96;100.00;99020.72;5011911;28;20117;-79
2023/03/08 02:32:17;;;;;;;0.10;0.10;;;;;;;0.98;100.00;99003.44;5012954;28;20164;-79
2023/03/08 02:34:43;;;;;;;0.10;0.10;;;;;;;0.93;100.00;98994.72;5012608;28;20050;-79
2023/03/08 02:37:08;;;;;;;0.10;0.10;;;;;;;0.83;100.00;99011.97;4993246;28;20033;-79
2023/03/08 02:39:33;;;;;;;0.10;0.10;;;;;;;0.86;100.00;99025.88;5004951;28;20030;-77
2023/03/08 02:41:59;;;;;;;0.00;0.00;;;;;;;0.82;100.00;99012.81;5002595;28;20440;-77
2023/03/08 02:44:24;;;;;;;0.10;0.10;;;;;;;0.76;100.00;99017.94;4998857;28;20042;-76
2023/03/08 02:46:51;;;;;;;0.10;0.10;;;;;;;0.68;100.00;99009.22;5001053;28;20034;-76
2023/03/08 02:49:17;;;;;;;0.00;0.00;;;;;;;0.56;100.00;99012.59;5001314;28;20080;-76
2023/03/08 02:51:42;;;;;;;0.10;0.10;;;;;;;0.52;100.00;99008.22;4998328;28;20041;-76
2023/03/08 02:54:08;;;;;;;0.10;0.10;;;;;;;0.45;100.00;99002.09;5000614;28;20117;-76
2023/03/08 02:56:33;;;;;;;0.10;0.10;;;;;;;0.33;100.00;98986.41;5005693;28;20030;-78
2023/03/08 02:58:58;;;;;;;0.10;0.10;;;;;;;0.14;100.00;98974.97;5006365;28;20041;-79
2023/03/08 03:01:24;;;;;;;0.10;0.10;;;;;;;-0.02;100.00;98999.88;5005745;28;20064;-79
2023/03/08 03:03:52;;;;;;;0.10;0.10;;;;;;;-0.18;100.00;99004.00;5009519;28;20129;-79
2023/03/08 03:06:19;;;;;;;0.10;0.10;;;;;;;-0.40;100.00;99013.19;5005766;28;20074;-79
2023/03/08 03:08:48;;;;;;;0.00;0.00;;;;;;;-0.47;100.00;99001.03;4984107;28;20031;-78
2023/03/08 03:11:18;;;;;;;0.10;0.10;;;;;;;-0.54;100.00;99002.66;5005096;28;20092;-79
2023/03/08 03:13:52;;;;;;;0.10;0.10;;;;;;;-0.57;100.00;99005.22;5008886;28;20088;-79
2023/03/08 03:16:17;;;;;;;0.10;0.10;;;;;;;-0.61;100.00;99007.72;5007454;28;20041;-79
2023/03/08 03:18:42;;;;;;;0.07;0.07;;;;;;;-0.68;100.00;99010.25;5010081;28;20034;-79
2023/03/08 03:21:12;;;;;;;0.10;0.10;;;;;;;-0.69;100.00;99025.75;5010608;28;20498;-79
2023/03/08 03:23:38;;;;;;;0.00;0.00;;;;;;;-0.68;100.00;99022.34;5012353;28;20072;-79
2023/03/08 03:26:10;;;;;;;0.00;0.00;;;;;;;-0.60;100.00;99018.13;5011900;28;20462;-79
2023/03/08 03:28:37;;;;;;;0.00;0.00;;;;;;;-0.58;100.00;99018.13;5012120;28;20054;-79
2023/03/08 03:31:14;;;;;;;0.00;0.00;;;;;;;-0.53;100.00;99021.66;5011293;28;20037;-78
2023/03/08 03:33:40;;;;;;;0.10;0.10;;;;;;;-0.52;100.00;99024.28;5009244;28;20156;-79
2023/03/08 03:36:08;;;;;;;0.00;0.00;;;;;;;-0.45;100.00;99033.91;5008122;28;20057;-79
2023/03/08 03:38:34;;;;;;;0.00;0.00;;;;;;;-0.36;100.00;99037.47;4993943;28;20034;-78
2023/03/08 03:41:10;;;;;;;0.10;0.10;;;;;;;-0.23;100.00;99031.59;5003241;28;20034;-79
2023/03/08 03:43:36;;;;;;;0.10;0.10;;;;;;;-0.10;100.00;99032.63;5008553;28;20038;-79
2023/03/08 03:46:06;;;;;;;0.00;0.00;;;;;;;0.07;100.00;99036.28;5007922;28;20036;-79
2023/03/08 03:48:33;;;;;;;0.10;0.10;;;;;;;0.20;100.00;99030.38;5010559;28;20034;-78
2023/03/08 03:51:11;;;;;;;0.00;0.00;;;;;;;0.38;100.00;99029.72;5010986;28;20045;-79
2023/03/08 03:53:37;;;;;;;0.10;0.10;;;;;;;0.43;100.00;99035.81;5007496;28;20041;-78
2023/03/08 03:56:13;;;;;;;0.10;0.10;;;;;;;0.47;100.00;99033.25;5011875;28;20112;-79
2023/03/08 03:58:39;;;;;;;0.00;0.00;;;;;;;0.54;100.00;99042.84;5010397;28;20026;-79
2023/03/08 04:01:15;;;;;;;0.10;0.10;;;;;;;0.64;100.00;99048.16;5010154;28;20030;-78
2023/03/08 04:03:41;;;;;;;0.00;0.00;;;;;;;0.67;100.00;99043.84;5012254;28;20407;-78
2023/03/08 04:06:16;;;;;;;0.03;0.03;;;;;;;0.75;100.00;99048.25;4996144;28;20030;-78
2023/03/08 04:08:42;;;;;;;0.03;0.03;;;;;;;0.78;100.00;99055.19;4992090;28;20433;-79
2023/03/08 04:11:16;;;;;;;0.10;0.10;;;;;;;0.81;100.00;99045.72;5008824;28;20026;-79
2023/03/08 04:13:42;;;;;;;0.10;0.10;;;;;;;0.76;100.00;99052.59;5004006;28;20038;-79
2023/03/08 04:16:09;;;;;;;0.10;0.10;;;;;;;0.81;100.00;99053.53;5008335;28;20519;-79
2023/03/08 04:18:35;;;;;;;0.00;0.00;;;;;;;0.82;100.00;99046.59;5011053;28;20041;-79
2023/03/08 04:21:00;;;;;;;0.00;0.00;;;;;;;0.91;100.00;99048.38;4994644;28;20026;-79
2023/03/08 04:23:26;;;;;;;0.00;0.00;;;;;;;0.94;100.00;99053.59;5010069;28;20042;-79
2023/03/08 04:25:51;;;;;;;0.10;0.10;;;;;;;0.97;100.00;99051.03;5012902;28;20099;-79
2023/03/08 04:28:18;;;;;;;0.10;0.10;;;;;;;0.92;100.00;99051.00;5009969;28;20034;-79
2023/03/08 04:30:43;;;;;;;0.10;0.10;;;;;;;0.94;100.00;99038.03;5012483;28;20030;-79
2023/03/08 04:33:08;;;;;;;0.10;0.10;;;;;;;0.98;100.00;99050.19;5009148;28;20030;-79
2023/03/08 04:35:42;;;;;;;0.08;0.08;;;;;;;1.06;100.00;99049.38;5007658;28;20034;-79
2023/03/08 04:38:08;;;;;;;0.10;0.10;;;;;;;1.11;100.00;99043.38;4995797;28;20034;-79
2023/03/08 04:41:00;;;;;;;0.10;0.10;;;;;;;1.13;100.00;99042.53;5005896;28;20102;-79
2023/03/08 04:43:23;;;;;;;0.10;0.10;;;;;;;1.06;100.00;99035.53;5006730;28;20094;-79
2023/03/08 04:45:49;;;;;;;0.00;0.00;;;;;;;1.08;100.00;99029.50;5012058;28;20057;-79
2023/03/08 04:48:15;;;;;;;0.00;0.00;;;;;;;1.01;100.00;99034.63;5009031;28;20038;-78
2023/03/08 04:50:40;;;;;;;0.03;0.03;;;;;;;0.95;100.00;99037.19;5009648;28;20037;-79
2023/03/08 04:53:07;;;;;;;0.10;0.10;;;;;;;0.87;100.00;99026.72;5007813;28;20574;-78
2023/03/08 04:55:35;;;;;;;0.00;0.00;;;;;;;0.80;100.00;99030.97;5007019;28;20042;-78
2023/03/08 04:58:01;;;;;;;0.00;0.00;;;;;;;0.71;100.00;99030.03;5006465;28;20093;-78
2023/03/08 05:00:28;;;;;;;0.00;0.00;;;;;;;0.70;100.00;99031.75;5009047;28;20508;-78
2023/03/08 05:02:54;;;;;;;0.10;0.10;;;;;;;0.70;100.00;99039.53;5008896;28;20045;-78
2023/03/08 05:05:21;;;;;;;0.07;0.07;;;;;;;0.76;100.00;99044.81;4986515;28;20064;-77
2023/03/08 05:07:47;;;;;;;0.00;0.00;;;;;;;0.86;100.00;99036.25;5002932;28;20145;-78
2023/03/08 05:10:12;;;;;;;0.00;0.00;;;;;;;0.86;100.00;99032.75;5002504;28;20121;-77
2023/03/08 05:12:40;;;;;;;0.08;0.08;;;;;;;1.00;100.00;99038.09;5002309;28;20038;-77
2023/03/08 05:15:05;;;;;;;0.05;0.05;;;;;;;1.11;100.00;99025.19;5002503;28;20053;-78
2023/03/08 05:17:31;;;;;;;0.10;0.10;;;;;;;1.18;100.00;99035.66;4998567;28;20037;-77
2023/03/08 05:19:56;;;;;;;0.00;0.00;;;;;;;1.19;100.00;99029.56;5000239;28;20496;-78
2023/03/08 05:22:29;;;;;;;0.10;0.10;;;;;;;1.27;100.00;99042.63;4993609;28;20037;-78
2023/03/08 05:24:56;;;;;;;0.10;0.10;;;;;;;1.28;100.00;99037.44;4999701;28;20393;-77
2023/03/08 05:27:22;;;;;;;0.00;0.00;;;;;;;1.26;100.00;99030.50;5000433;28;20048;-77
2023/03/08 05:29:50;;;;;;;0.10;0.10;;;;;;;1.20;100.00;99041.69;4995749;28;20117;-78
2023/03/08 05:32:15;;;;;;;0.10;0.10;;;;;;;1.19;100.00;99037.38;5003913;28;20037;-78
2023/03/08 05:34:41;;;;;;;0.10;0.10;;;;;;;1.20;100.00;99036.50;4986887;28;20056;-77
2023/03/08 05:37:10;;;;;;;0.10;0.10;;;;;;;1.17;100.00;99030.41;5000944;28;20128;-77
2023/03/08 05:39:37;;;;;;;0.10;0.10;;;;;;;1.14;100.00;99031.25;5001234;28;20034;-78
2023/03/08 05:42:18;;;;;;;0.10;0.10;;;;;;;1.06;100.00;99041.59;4995506;28;20532;-78
2023/03/08 05:44:45;;;;;;;0.05;0.05;;;;;;;0.97;100.00;99054.53;4996706;28;20033;-77
2023/03/08 05:47:13;;;;;;;0.00;0.00;;;;;;;1.02;100.00;99059.75;5003062;28;20133;-78
2023/03/08 05:49:38;;;;;;;0.10;0.10;;;;;;;1.06;100.00;99058.91;4996494;28;20109;-77
2023/03/08 05:52:05;;;;;;;0.00;0.00;;;;;;;1.01;100.00;99053.69;5002264;28;20030;-77
2023/03/08 05:54:31;;;;;;;0.10;0.10;;;;;;;1.00;100.00;99051.94;5000464;28;20112;-78
2023/03/08 05:57:01;;;;;;;0.03;0.03;;;;;;;0.99;100.00;99054.53;4999585;28;20181;-77
2023/03/08 05:59:27;;;;;;;0.10;0.10;;;;;;;0.99;100.00;99052.78;5000540;28;20037;-77
2023/03/08 06:01:57;;;;;;;0.00;0.00;;;;;;;1.03;100.00;99053.72;4997614;28;20034;-77
2023/03/08 06:04:31;;;;;;;0.00;0.00;;;;;;;1.03;100.00;99054.56;4998547;28;20065;-77
2023/03/08 06:06:57;;;;;;;0.10;0.10;;;;;;;0.98;100.00;99052.78;5001423;28;20380;-77
2023/03/08 06:09:27;;;;;;;0.10;0.10;;;;;;;0.94;100.00;99053.59;4998797;28;20028;-78
2023/03/08 06:11:54;;;;;;;0.03;0.03;;;;;;;0.88;100.00;99057.88;4998100;28;20026;-77
2023/03/08 06:14:20;;;;;;;0.10;0.10;;;;;;;0.84;100.00;99044.88;5000911;28;20030;-77
2023/03/08 06:16:47;;;;;;;0.10;0.10;;;;;;;0.88;100.00;99051.84;5001184;28;20042;-77
2023/03/08 06:19:14;;;;;;;0.10;0.10;;;;;;;0.94;100.00;99057.06;4982857;28;20062;-77
2023/03/08 06:21:40;;;;;;;0.10;0.10;;;;;;;0.99;100.00;99059.72;5000962;28;20121;-77
2023/03/08 06:24:06;;;;;;;0.10;0.10;;;;;;;1.13;100.00;99054.63;5002193;28;20129;-77
2023/03/08 06:26:31;;;;;;;0.00;0.00;;;;;;;1.26;100.00;99057.34;5002046;28;20053;-77
2023/03/08 06:28:57;;;;;;;0.10;0.10;;;;;;;1.40;100.00;99060.06;5001845;28;20038;-77
2023/03/08 06:31:26;;;;;;;0.10;0.10;;;;;;;1.43;100.00;99065.25;4999405;28;20125;-77
2023/03/08 06:33:52;;;;;;;0.10;0.10;;;;;;;1.44;100.00;99058.31;4993980;28;20462;-77
2023/03/08 06:36:21;;;;;;;0.10;0.10;;;;;;;1.51;100.00;99065.31;4994587;28;20033;-77
2023/03/08 06:38:49;;;;;;;0.10;0.10;;;;;;;1.61;100.00;99072.31;4995809;28;20030;-77
2023/03/08 06:41:16;;;;;;;0.10;0.10;;;;;;;1.66;100.00;99065.41;4998736;28;20056;-77
2023/03/08 06:43:42;;;;;;;0.10;0.10;;;;;;;1.71;100.00;99063.72;5000045;28;20034;-77
2023/03/08 06:46:11;;;;;;;0.10;0.10;;;;;;;1.86;100.00;99062.06;4998478;28;20129;-77
2023/03/08 06:48:36;;;;;;;0.10;0.10;;;;;;;1.83;100.00;99062.03;5001341;28;20152;-77
2023/03/08 06:51:03;;;;;;;0.10;0.10;;;;;;;1.87;100.00;99063.81;5002909;28;20527;-77
2023/03/08 06:53:29;;;;;;;3.63;3.10;;;;;;;1.81;100.00;99066.34;5007650;28;20492;-77
2023/03/08 06:56:01;;;;;;;3.92;3.10;;;;;;;1.77;100.00;99064.63;5009484;28;20025;-78
2023/03/08 06:58:29;;;;;;;3.53;2.75;;;;;;;1.91;100.00;99060.34;5005354;28;20030;-77
2023/03/08 07:00:55;;;;;;;3.38;2.70;;;;;;;1.88;100.00;99058.59;5001268;28;20041;-77
2023/03/08 07:03:20;;;;;;;3.60;3.15;;;;;;;1.97;100.00;99069.06;5007835;28;20038;-77
2023/03/08 07:05:45;;;;;;;3.83;3.28;;;;;;;1.95;100.00;99073.38;5006767;28;20543;-77
2023/03/08 07:08:11;;;;;;;3.97;3.55;;;;;;;1.89;100.00;99088.13;5001944;28;20045;-77
2023/03/08 07:10:36;;;;;;;4.13;3.72;;;;;;;2.04;100.00;99080.34;5003945;28;20099;-77
2023/03/08 07:13:02;;;;;;;3.30;2.63;;;;;;;2.27;100.00;99082.22;5001294;28;20090;-77
2023/03/08 07:15:28;;;;;;;3.45;3.00;;;;;;;2.37;100.00;99074.44;4997858;28;20448;-77
2023/03/08 07:17:55;;;;;;;4.05;2.90;;;;;;;2.43;100.00;99073.56;4997336;28;20473;-77
2023/03/08 07:20:22;;;;;;;4.07;3.17;;;;;;;2.55;100.00;99073.63;5002349;28;20462;-77
2023/03/08 07:22:47;;;;;;;3.15;2.60;;;;;;;2.53;100.00;99070.13;5000679;28;20040;-77
2023/03/08 07:25:15;;;;;;;3.20;2.80;;;;;;;2.49;100.00;99073.63;5002492;28;20034;-77
2023/03/08 07:27:41;;;;;;;3.10;2.60;;;;;;;2.54;100.00;99074.50;4999870;28;20476;-77
2023/03/08 07:30:10;;;;;;;4.10;3.30;;;;;;;2.48;100.00;99069.25;4995809;28;20038;-77
2023/03/08 07:32:38;;;;;;;3.10;2.50;;;;;;;2.67;100.00;99077.13;5001749;28;20061;-77
2023/03/08 07:35:04;;;;;;;2.90;2.60;;;;;;;2.83;100.00;99074.56;5000763;28;20108;-77
2023/03/08 07:37:30;;;;;;;3.00;2.55;;;;;;;3.02;100.00;99079.78;4997234;28;20455;-77
2023/03/08 07:39:55;;;;;;;2.80;2.30;;;;;;;3.09;100.00;99073.69;4997464;28;20096;-77
2023/03/08 07:42:20;;;;;;;2.67;2.30;;;;;;;3.18;100.00;99080.69;5000457;28;20038;-77
2023/03/08 07:44:52;;;;;;;3.42;2.90;;;;;;;3.14;100.00;99069.34;5002043;28;20038;-77
2023/03/08 07:47:18;;;;;;;2.88;2.25;;;;;;;3.18;100.00;99075.47;4989558;28;20030;-77
2023/03/08 07:49:43;;;;;;;3.22;2.60;;;;;;;3.06;100.00;99071.09;4999496;28;20448;-77
2023/03/08 07:52:09;;;;;;;2.35;2.10;;;;;;;3.18;100.00;99071.09;4998288;28;20034;-77
2023/03/08 07:54:34;;;;;;;2.63;2.25;;;;;;;3.32;100.00;99059.81;5002975;28;20057;-77
2023/03/08 07:56:59;;;;;;;1.98;1.70;;;;;;;3.58;100.00;99060.66;4999603;28;20100;-77
2023/03/08 07:59:25;;;;;;;2.88;2.42;;;;;;;3.59;100.00;99051.06;5000976;28;20109;-77
2023/03/08 08:01:50;;;;;;;3.80;3.30;;;;;;;3.66;100.00;99052.81;5001143;28;20060;-77
2023/03/08 08:04:16;;;;;;;4.00;3.60;;;;;;;3.68;100.00;99056.28;4996334;28;20035;-77
2023/03/08 08:06:41;;;;;;;3.10;2.80;;;;;;;3.85;100.00;99046.69;5003434;28;20038;-77
2023/03/08 08:09:10;;;;;;;2.45;2.10;;;;;;;4.00;100.00;99042.28;5003969;28;20609;-77
2023/03/08 08:11:37;;;;;;;2.75;2.45;;;;;;;4.12;100.00;99042.25;5003708;28;20052;-77
2023/03/08 08:14:04;;;;;;;2.00;1.80;;;;;;;4.25;100.00;99045.69;5003775;28;20041;-77
2023/03/08 08:16:29;;;;;;;1.60;1.45;;;;;;;4.36;100.00;99044.72;5000285;28;20409;-77
2023/03/08 08:18:54;;;;;;;1.83;1.60;;;;;;;4.54;100.00;99045.53;5004133;28;20030;-77
2023/03/08 08:21:20;;;;;;;1.30;1.20;;;;;;;4.69;100.00;99042.81;5001133;28;20469;-77
2023/03/08 08:23:46;;;;;;;0.95;0.90;;;;;;;4.71;100.00;99033.22;5005294;28;20523;-77
2023/03/08 08:26:14;;;;;;;0.77;0.77;;;;;;;4.96;100.00;99035.66;4986347;28;20065;-77
2023/03/08 08:28:41;;;;;;;0.95;0.93;;;;;;;5.10;100.00;99020.72;5001508;28;20121;-77
2023/03/08 08:31:09;;;;;;;0.60;0.60;;;;;;;5.20;100.00;99027.63;5003620;28;20054;-77
2023/03/08 08:33:35;;;;;;;0.60;0.60;;;;;;;5.20;100.00;99032.00;5002660;28;20493;-77
2023/03/08 08:36:07;;;;;;;0.60;0.60;;;;;;;5.15;100.00;99031.16;5005910;28;20125;-77
2023/03/08 08:38:32;;;;;;;0.45;0.43;;;;;;;5.15;100.00;99032.03;4996290;28;20045;-77
2023/03/08 08:40:59;;;;;;;0.50;0.50;;;;;;;5.23;100.00;99031.97;5005761;28;20041;-77
2023/03/08 08:43:25;;;;;;;0.98;0.80;;;;;;;5.11;100.00;99030.31;5000701;28;20061;-77
2023/03/08 08:45:53;;;;;;;0.60;0.60;;;;;;;5.38;100.00;99033.59;5002843;28;20526;-77
2023/03/08 08:48:19;;;;;;;0.50;0.50;;;;;;;5.36;100.00;99030.09;5003777;28;20034;-77
2023/03/08 08:50:44;;;;;;;0.50;0.50;;;;;;;5.61;100.00;99018.53;5003980;28;20037;-77
2023/03/08 08:53:09;;;;;;;0.38;0.38;;;;;;;5.87;100.00;99025.25;5003554;28;20048;-77
2023/03/08 08:55:35;;;;;;;0.32;0.30;;;;;;;5.86;99.96;99021.72;5004031;28;20033;-77
2023/03/08 08:58:03;;;;;;;0.35;0.35;;;;;;;5.87;100.00;99014.75;5003539;28;20038;-77
2023/03/08 09:00:28;;;;;;;0.40;0.40;;;;;;;6.02;100.00;99014.59;5003050;28;20483;-77
2023/03/08 09:02:54;;;;;;;0.30;0.30;;;;;;;6.12;98.55;99020.59;5002772;28;20109;-77
2023/03/08 09:05:19;;;;;;;0.40;0.40;;;;;;;6.06;97.33;99011.06;5001794;28;20490;-77
2023/03/08 09:07:44;;;;;;;0.10;0.10;;;;;;;6.17;98.18;99007.44;5003027;28;20404;-77
2023/03/08 09:10:10;;;;;;;1.25;1.10;;;;;;;6.11;97.42;99005.78;5001138;28;20030;-77
2023/03/08 09:12:36;;;;;;;0.80;0.77;;;;;;;6.14;97.79;98998.72;5003970;28;20038;-77
2023/03/08 09:15:02;;;;;;;0.65;0.65;;;;;;;6.05;97.04;98993.63;4985727;28;20372;-77
2023/03/08 09:17:27;;;;;;;0.90;0.77;;;;;;;6.05;98.04;98983.16;5003257;28;20543;-77
2023/03/08 09:19:52;;;;;;;0.80;0.80;;;;;;;6.20;98.55;98973.34;5001849;28;20044;-77
2023/03/08 09:22:18;;;;;;;0.80;0.70;;;;;;;6.63;97.16;98963.13;5003081;28;20444;-77
2023/03/08 09:24:44;;;;;;;0.70;0.70;;;;;;;6.86;93.75;98967.97;4995384;28;20481;-77
2023/03/08 09:27:10;;;;;;;0.60;0.60;;;;;;;6.32;94.72;98960.94;4997666;28;20041;-77
2023/03/08 09:29:36;;;;;;;0.75;0.75;;;;;;;6.27;98.07;98961.91;5000130;28;20045;-77
2023/03/08 09:32:03;;;;;;;0.88;0.60;;;;;;;6.32;96.28;98962.72;5004631;28;20038;-77
2023/03/08 09:34:28;;;;;;;0.60;0.60;;;;;;;6.33;96.99;98954.81;4996370;28;20049;-77
2023/03/08 09:36:53;;;;;;;0.60;0.60;;;;;;;6.29;96.21;98965.38;4997224;28;20040;-77
2023/03/08 09:39:19;;;;;;;0.43;0.43;;;;;;;6.48;96.99;98964.22;4993350;28;20049;-77
2023/03/08 09:41:51;;;;;;;0.40;0.40;;;;;;;6.54;95.89;98960.63;5000727;28;20043;-77
2023/03/08 09:44:48;;;;;;;0.50;0.50;;;;;;;6.68;95.35;98952.53;5001122;28;20069;-77
2023/03/08 09:47:38;;;;;;;0.50;0.50;;;;;;;6.61;94.85;98946.56;4997020;28;20444;-77
2023/03/08 09:50:12;;;;;;;0.38;0.38;;;;;;;6.78;95.90;98948.91;5000551;28;20552;-77
2023/03/08 09:52:42;;;;;;;0.50;0.50;;;;;;;7.04;94.22;98951.09;5003032;28;20373;-77
2023/03/08 09:55:18;;;;;;;0.60;0.60;;;;;;;7.07;91.95;98945.78;5000474;28;20088;-77
2023/03/08 09:57:51;;;;;;;0.60;0.60;;;;;;;7.19;90.33;98940.31;4997942;28;20154;-77
2023/03/08 10:00:26;;;;;;;0.93;0.93;;;;;;;7.61;92.48;98940.41;5002233;28;20057;-77
2023/03/08 10:03:21;;;;;;;0.30;0.30;;;;;;;7.71;87.62;98937.63;5002293;28;20070;-77
2023/03/08 10:06:14;;;;;;;0.30;0.30;;;;;;;7.47;88.32;98924.94;5002594;28;20034;-77
2023/03/08 10:08:55;;;;;;;0.30;0.30;;;;;;;7.19;88.91;98923.72;5003650;28;20038;-77
2023/03/08 10:11:35;;;;;;;0.20;0.20;;;;;;;6.67;91.41;98933.34;4999905;28;20392;-77
2023/03/08 10:14:12;;;;;;;0.20;0.20;;;;;;;6.69;91.50;98928.09;5000857;28;20049;-77
2023/03/08 10:16:44;;;;;;;0.20;0.20;;;;;;;6.56;91.74;98928.25;5000361;28;20033;-77
2023/03/08 10:19:25;;;;;;;0.30;0.30;;;;;;;6.51;92.06;98918.75;5000619;28;20107;-77
2023/03/08 10:21:54;;;;;;;0.20;0.20;;;;;;;6.51;92.86;98919.59;4997306;28;20508;-77
2023/03/08 10:24:27;;;;;;;0.20;0.20;;;;;;;6.72;91.49;98910.53;5003220;28;20037;-77
2023/03/08 10:27:08;;;;;;;0.30;0.30;;;;;;;6.95;92.77;98907.53;4997556;28;20030;-77
2023/03/08 10:29:34;;;;;;;0.20;0.20;;;;;;;7.21;89.59;98903.56;4998174;28;20034;-77
2023/03/08 10:31:59;;;;;;;0.20;0.20;;;;;;;7.14;90.97;98910.69;5003585;28;20056;-77
2023/03/08 10:34:29;;;;;;;0.20;0.20;;;;;;;6.85;90.31;98907.72;5000784;28;20038;-77
2023/03/08 10:37:01;;;;;;;0.20;0.20;;;;;;;6.69;90.72;98914.97;5003720;28;20113;-77
2023/03/08 10:39:26;;;;;;;0.10;0.10;;;;;;;6.59;91.43;98902.00;4998428;28;20034;-77
2023/03/08 10:41:55;;;;;;;0.10;0.10;;;;;;;6.51;90.95;98913.50;5002611;28;20405;-77
2023/03/08 10:44:53;;;;;;;0.20;0.20;;;;;;;6.43;90.13;98905.75;5001589;28;20582;-77
2023/03/08 10:47:20;;;;;;;0.10;0.10;;;;;;;6.09;91.46;98898.41;4994920;28;20046;-77
2023/03/08 10:49:46;;;;;;;0.20;0.20;;;;;;;5.96;92.87;98894.22;5003268;28;20037;-77
2023/03/08 10:52:27;;;;;;;0.15;0.15;;;;;;;6.03;93.27;98895.00;4998711;28;20040;-76
2023/03/08 10:55:27;;;;;;;0.10;0.10;;;;;;;6.24;93.80;98885.97;5000082;28;20045;-77
2023/03/08 10:57:59;;;;;;;0.20;0.20;;;;;;;6.19;93.39;98883.41;4980194;28;20600;-77
2023/03/08 11:00:35;;;;;;;0.13;0.13;;;;;;;6.18;94.59;98879.06;4994174;28;20094;-77
2023/03/08 11:03:17;;;;;;;0.20;0.20;;;;;;;6.31;94.54;98875.38;5001914;28;20096;-77
2023/03/08 11:05:51;;;;;;;0.10;0.10;;;;;;;6.23;94.06;98868.50;5005447;28;20543;-77
2023/03/08 11:08:20;;;;;;;0.20;0.20;;;;;;;6.02;97.09;98853.97;5006607;23;20034;-71
2023/03/08 11:10:45;;;;;;;0.15;0.15;;;;;;;6.05;97.03;98857.44;4997013;28;20390;-72
2023/03/08 11:13:27;;;;;;;0.10;0.10;;;;;;;5.95;95.07;98854.94;5004311;28;20041;-71
2023/03/08 11:15:58;;;;;;;0.10;0.10;;;;;;;5.97;96.43;98847.94;4988109;28;20104;-71
2023/03/08 11:18:35;;;;;;;0.10;0.10;;;;;;;6.06;96.13;98848.69;4994029;28;20062;-71
2023/03/08 11:21:25;;;;;;;0.10;0.10;;;;;;;6.13;96.52;98837.22;5001807;28;20034;-71
2023/03/08 11:24:17;;;;;;;0.20;0.20;;;;;;;6.20;96.92;98829.25;4998931;28;20053;-71
2023/03/08 11:27:10;;;;;;;0.20;0.20;;;;;;;5.97;98.23;98820.00;4998916;28;20037;-71
2023/03/08 11:29:42;;;;;;;;;;;;;;;6.04;97.75;98820.78;4999015;28;20125;-71
2023/03/08 11:32:28;;;;;;;0.20;0.20;;;;;;;5.91;97.06;98814.81;4993943;28;21881;-71
2023/03/08 11:35:13;;;;;;;0.10;0.10;;;;;;;5.90;97.21;98807.88;4996156;28;20517;-71
2023/03/08 11:37:43;;;;;;;0.10;0.10;;;;;;;5.87;98.44;98794.84;4998491;28;20113;-71
2023/03/08 11:40:25;;;;;;;0.15;0.15;;;;;;;6.00;97.57;98785.94;4993222;28;20038;-71